createdAt,value
2019-01-04T00:00:56.062Z,11.45
2019-01-04T00:03:38.534Z,12.88
2019-01-04T00:06:20.835Z,11.12
2019-01-04T00:09:02.684Z,12.07
2019-01-04T00:11:44.844Z,9.90
2019-01-04T00:14:26.825Z,13.08
2019-01-04T00:17:08.925Z,14.05
2019-01-04T00:19:51.397Z,13.95
2019-01-04T00:22:33.810Z,12.78
2019-01-04T00:25:16.275Z,11.12
2019-01-04T00:27:58.163Z,11.75
2019-01-04T00:30:40.496Z,13.22
2019-01-04T00:33:22.934Z,11.57
2019-01-04T00:36:05.232Z,12.28
2019-01-04T00:38:47.225Z,12.43
2019-01-04T00:41:29.236Z,13.65
2019-01-04T00:44:11.358Z,11.28
2019-01-04T00:46:53.275Z,12.53
2019-01-04T00:49:35.183Z,12.10
2019-01-04T00:52:17.764Z,11.43
2019-01-04T00:54:59.633Z,11.97
2019-01-04T00:57:41.609Z,11.50
2019-01-04T01:00:23.351Z,10.48
2019-01-04T01:03:05.479Z,10.90
2019-01-04T01:05:48.083Z,12.68
2019-01-04T01:08:30.003Z,12.70
2019-01-04T01:11:12.290Z,13.32
2019-01-04T01:13:54.576Z,11.70
2019-01-04T01:16:36.859Z,12.18
2019-01-04T01:22:56.914Z,10.40
2019-01-04T01:26:05.525Z,12.75
2019-01-04T01:29:14.183Z,10.00
2019-01-04T01:32:23.065Z,8.93
2019-01-04T01:35:31.874Z,11.35
2019-01-04T01:38:40.610Z,9.83
2019-01-04T01:41:49.268Z,10.35
2019-01-04T01:44:58.020Z,8.95
2019-01-04T01:47:52.115Z,9.80
2019-01-04T01:50:34.151Z,9.50
2019-01-04T01:53:16.432Z,9.03
2019-01-04T01:55:58.211Z,10.85
2019-01-04T01:58:40.257Z,10.58
2019-01-04T02:01:22.240Z,10.10
2019-01-04T02:04:04.578Z,6.87
2019-01-04T02:06:46.709Z,9.65
2019-01-04T02:09:27.365Z,9.90
2019-01-04T02:18:26.163Z,10.55
2019-01-04T02:21:08.799Z,8.75
2019-01-04T02:23:50.940Z,8.48
2019-01-04T02:26:31.653Z,7.65
2019-01-04T02:29:21.463Z,8.68
2019-01-04T02:32:11.331Z,7.62
2019-01-04T02:35:01.037Z,8.13
2019-01-04T02:37:50.740Z,7.00
2019-01-04T02:40:59.883Z,8.33
2019-01-04T02:44:08.996Z,6.90
2019-01-04T02:50:27.062Z,7.80
2019-01-04T02:53:36.614Z,9.13
2019-01-04T02:59:35.637Z,8.55
2019-01-04T03:09:02.020Z,8.28
2019-01-04T03:21:42.135Z,8.20
2019-01-04T03:24:43.762Z,8.10
2019-01-04T03:27:26.010Z,8.85
2019-01-04T03:30:08.013Z,7.42
2019-01-04T03:32:49.760Z,8.23
2019-01-04T03:35:32.165Z,11.55
2019-01-04T03:38:14.584Z,9.10
2019-01-04T03:40:57.319Z,11.68
2019-01-04T03:43:39.330Z,8.73
2019-01-04T03:46:21.094Z,8.90
2019-01-04T03:49:02.955Z,9.75
2019-01-04T03:51:45.095Z,8.80
2019-01-04T03:54:27.436Z,8.18
2019-01-04T03:57:09.500Z,9.40
2019-01-04T03:59:51.759Z,10.65
2019-01-04T04:02:34.565Z,8.65
2019-01-04T04:05:16.785Z,9.30
2019-01-04T04:07:59.190Z,8.20
2019-01-04T04:10:41.817Z,9.65
2019-01-04T04:13:23.770Z,8.93
2019-01-04T04:16:05.549Z,8.68
2019-01-04T04:18:47.360Z,8.23
2019-01-04T04:21:29.265Z,10.20
2019-01-04T04:24:11.895Z,10.25
2019-01-04T04:26:54.087Z,11.12
2019-01-04T04:29:36.070Z,10.20
2019-01-04T04:32:18.747Z,9.13
2019-01-04T04:35:00.665Z,8.80
2019-01-04T04:37:43.389Z,9.10
2019-01-04T04:40:25.636Z,9.50
2019-01-04T04:43:07.913Z,9.40
2019-01-04T04:45:50.330Z,10.58
2019-01-04T04:48:32.319Z,10.43
2019-01-04T04:51:14.324Z,8.45
2019-01-04T04:53:56.235Z,12.03
2019-01-04T04:56:38.465Z,10.15
2019-01-04T04:59:20.346Z,9.68
2019-01-04T05:02:02.582Z,11.15
2019-01-04T05:04:44.534Z,9.68
2019-01-04T05:07:26.794Z,9.78
2019-01-04T05:10:08.904Z,10.70
2019-01-04T05:12:51.139Z,9.85
2019-01-04T05:15:33.670Z,9.38
2019-01-04T05:18:16.220Z,9.58
2019-01-04T05:20:58.490Z,10.72
2019-01-04T05:23:41.154Z,9.68
2019-01-04T05:26:23.586Z,9.85
2019-01-04T05:29:05.537Z,9.00
2019-01-04T05:31:47.281Z,8.68
2019-01-04T05:34:29.411Z,9.90
2019-01-04T05:37:11.418Z,9.68
2019-01-04T05:39:53.180Z,10.35
2019-01-04T05:42:35.295Z,9.10
2019-01-04T05:45:17.323Z,11.08
2019-01-04T05:47:59.601Z,10.75
2019-01-04T05:50:42.003Z,9.65
2019-01-04T05:53:24.749Z,10.35
2019-01-04T05:56:07.121Z,10.30
2019-01-04T05:58:49.383Z,11.68
2019-01-04T06:01:31.957Z,9.68
2019-01-04T06:04:14.141Z,10.45
2019-01-04T06:06:56.418Z,10.58
2019-01-04T06:09:39.022Z,10.55
2019-01-04T06:12:21.329Z,10.13
2019-01-04T06:15:03.674Z,11.15
2019-01-04T06:17:45.699Z,11.53
2019-01-04T06:20:28.173Z,10.40
2019-01-04T06:23:10.535Z,10.70
2019-01-04T06:25:52.293Z,9.58
2019-01-04T06:28:34.617Z,9.28
2019-01-04T06:31:16.515Z,10.13
2019-01-04T06:33:58.958Z,11.08
2019-01-04T06:36:40.705Z,8.95
2019-01-04T06:39:23.363Z,10.18
2019-01-04T06:42:05.412Z,11.55
2019-01-04T06:44:47.456Z,12.45
2019-01-04T06:47:29.593Z,10.50
2019-01-04T06:50:11.783Z,11.60
2019-01-04T06:52:54.194Z,11.22
2019-01-04T06:55:36.919Z,13.00
2019-01-04T06:58:19.268Z,13.25
2019-01-04T07:01:01.613Z,10.75
2019-01-04T07:03:43.825Z,11.12
2019-01-04T07:06:25.985Z,11.10
2019-01-04T07:09:08.068Z,12.78
2019-01-04T07:11:50.633Z,12.43
2019-01-04T07:14:33.089Z,11.25
2019-01-04T07:17:14.829Z,9.58
2019-01-04T07:19:57.495Z,12.88
2019-01-04T07:22:39.580Z,9.73
2019-01-04T07:25:22.247Z,11.40
2019-01-04T07:28:04.760Z,11.03
2019-01-04T07:30:47.263Z,11.60
2019-01-04T07:33:29.807Z,11.10
2019-01-04T07:36:11.743Z,10.32
2019-01-04T07:38:53.603Z,10.85
2019-01-04T07:41:36.309Z,11.65
2019-01-04T07:44:18.369Z,13.03
2019-01-04T07:47:00.161Z,10.60
2019-01-04T07:49:41.944Z,9.45
2019-01-04T07:52:23.880Z,11.88
2019-01-04T07:55:05.817Z,11.85
2019-01-04T07:57:51.368Z,11.55
2019-01-04T08:00:36.424Z,11.40
2019-01-04T08:03:20.582Z,11.03
2019-01-04T08:06:02.544Z,11.78
2019-01-04T08:08:44.478Z,11.05
2019-01-04T08:11:26.653Z,11.73
2019-01-04T08:14:09.443Z,14.80
2019-01-04T08:16:51.539Z,10.53
2019-01-04T08:19:34.450Z,12.53
2019-01-04T08:22:16.593Z,12.15
2019-01-04T08:24:58.566Z,13.70
2019-01-04T08:27:40.270Z,12.65
2019-01-04T08:30:22.850Z,12.40
2019-01-04T08:33:05.013Z,13.35
2019-01-04T08:35:47.380Z,13.05
2019-01-04T08:38:29.340Z,12.78
2019-01-04T08:41:12.350Z,12.07
2019-01-04T08:43:54.697Z,14.80
2019-01-04T08:46:37.009Z,14.05
2019-01-04T08:49:19.014Z,13.55
2019-01-04T08:52:01.157Z,12.70
2019-01-04T08:54:43.318Z,14.55
2019-01-04T08:57:25.347Z,12.40
2019-01-04T09:00:08.125Z,12.20
2019-01-04T09:02:50.607Z,15.18
2019-01-04T09:05:33.017Z,11.38
2019-01-04T09:08:15.331Z,11.22
2019-01-04T09:10:57.378Z,12.10
2019-01-04T09:13:40.131Z,14.15
2019-01-04T09:16:22.744Z,11.55
2019-01-04T09:19:04.846Z,13.80
2019-01-04T09:21:47.004Z,14.28
2019-01-04T09:24:28.920Z,13.45
2019-01-04T09:27:11.407Z,13.78
2019-01-04T09:29:53.543Z,13.38
2019-01-04T09:32:35.541Z,13.25
2019-01-04T09:35:18.003Z,16.17
2019-01-04T09:37:59.810Z,17.87
2019-01-04T09:40:41.864Z,16.32
2019-01-04T09:43:24.023Z,14.87
2019-01-04T09:46:06.138Z,15.30
2019-01-04T09:48:48.647Z,14.33
2019-01-04T09:51:30.598Z,13.20
2019-01-04T09:54:13.217Z,14.95
2019-01-04T09:56:55.344Z,16.23
2019-01-04T09:59:38.070Z,14.23
2019-01-04T10:02:20.453Z,18.52
2019-01-04T10:05:02.422Z,16.57
2019-01-04T10:07:44.344Z,15.35
2019-01-04T10:10:26.053Z,13.03
2019-01-04T10:13:07.963Z,14.87
2019-01-04T10:15:50.522Z,12.45
2019-01-04T10:18:32.842Z,13.40
2019-01-04T10:21:15.069Z,14.07
2019-01-04T10:23:57.705Z,12.60
2019-01-04T10:26:40.555Z,11.75
2019-01-04T10:29:23.416Z,12.40
2019-01-04T10:32:05.584Z,12.98
2019-01-04T10:34:47.821Z,13.50
2019-01-04T10:37:30.677Z,16.57
2019-01-04T10:40:12.635Z,12.87
2019-01-04T10:42:55.364Z,13.80
2019-01-04T10:45:37.375Z,12.70
2019-01-04T10:48:19.463Z,11.25
2019-01-04T10:51:01.562Z,11.70
2019-01-04T10:53:44.215Z,12.82
2019-01-04T10:56:26.672Z,12.82
2019-01-04T10:59:08.765Z,12.70
2019-01-04T11:01:51.067Z,13.78
2019-01-04T11:04:33.518Z,14.98
2019-01-04T11:07:15.906Z,14.40
2019-01-04T11:09:58.029Z,14.10
2019-01-04T11:12:39.994Z,12.90
2019-01-04T11:15:22.257Z,13.80
2019-01-04T11:18:09.868Z,12.28
2019-01-04T11:20:49.715Z,12.30
2019-01-04T11:23:32.243Z,11.80
2019-01-04T11:26:14.138Z,14.15
2019-01-04T11:28:55.936Z,13.00
2019-01-04T11:31:38.505Z,11.80
2019-01-04T11:34:20.995Z,12.90
2019-01-04T11:41:03.296Z,14.28
2019-01-04T11:44:31.395Z,12.85
2019-01-04T11:51:12.730Z,12.03
2019-01-04T12:00:31.545Z,13.70
2019-01-04T12:06:49.496Z,12.85
2019-01-04T12:13:28.247Z,14.75
2019-01-04T12:16:17.856Z,13.22
2019-01-04T12:19:26.887Z,11.73
2019-01-04T12:25:44.537Z,13.00
2019-01-04T12:28:26.296Z,12.80
2019-01-04T12:31:09.006Z,14.85
2019-01-04T12:33:51.027Z,19.62
2019-01-04T12:36:33.408Z,18.52
2019-01-04T12:39:16.413Z,16.70
2019-01-04T12:41:58.349Z,12.70
2019-01-04T12:44:41.177Z,12.30
2019-01-04T12:47:23.534Z,12.15
2019-01-04T12:50:05.425Z,11.55
2019-01-04T12:52:47.481Z,12.33
2019-01-04T12:55:29.424Z,11.70
2019-01-04T12:58:11.993Z,13.03
2019-01-04T13:00:54.373Z,12.63
2019-01-04T13:03:36.509Z,11.10
2019-01-04T13:06:18.721Z,13.43
2019-01-04T13:09:01.303Z,11.60
2019-01-04T13:11:43.466Z,12.63
2019-01-04T13:14:25.821Z,15.63
2019-01-04T13:17:08.165Z,11.33
2019-01-04T13:19:50.448Z,10.80
2019-01-04T13:22:32.398Z,13.60
2019-01-04T13:25:15.025Z,10.80
2019-01-04T13:27:57.086Z,14.63
2019-01-04T13:30:39.749Z,12.05
2019-01-04T13:33:22.853Z,11.97
2019-01-04T13:36:04.604Z,13.05
2019-01-04T13:38:46.856Z,11.70
2019-01-04T13:41:28.861Z,14.28
2019-01-04T13:44:11.446Z,11.65
2019-01-04T13:46:53.799Z,10.55
2019-01-04T13:49:35.993Z,13.72
2019-01-04T13:52:17.648Z,10.63
2019-01-04T13:54:59.749Z,11.20
2019-01-04T13:57:41.925Z,13.78
2019-01-04T14:00:23.969Z,13.83
2019-01-04T14:03:05.989Z,13.10
2019-01-04T14:05:48.905Z,12.07
2019-01-04T14:08:30.784Z,11.55
2019-01-04T14:11:13.376Z,10.98
2019-01-04T14:13:55.905Z,10.95
2019-01-04T14:16:38.296Z,12.30
2019-01-04T14:19:20.517Z,11.30
2019-01-04T14:22:02.313Z,11.50
2019-01-04T14:24:44.614Z,11.05
2019-01-04T14:27:26.779Z,10.90
2019-01-04T14:30:08.836Z,13.73
2019-01-04T14:32:51.570Z,11.53
2019-01-04T14:35:34.387Z,10.38
2019-01-04T14:38:17.139Z,13.62
2019-01-04T14:40:59.446Z,12.88
2019-01-04T14:43:42.408Z,11.43
2019-01-04T14:46:25.311Z,11.75
2019-01-04T14:49:08.726Z,12.50
2019-01-04T14:51:51.168Z,10.88
2019-01-04T14:54:33.671Z,12.13
2019-01-04T14:57:16.033Z,11.00
2019-01-04T14:59:58.461Z,15.48
2019-01-04T15:02:40.843Z,14.70
2019-01-04T15:05:22.915Z,13.43
2019-01-04T15:08:06.525Z,12.93
2019-01-04T15:10:48.564Z,12.80
2019-01-04T15:13:30.823Z,13.83
2019-01-04T15:16:12.923Z,18.42
2019-01-04T15:18:54.875Z,14.93
2019-01-04T15:21:36.684Z,15.80
2019-01-04T15:24:19.187Z,14.85
2019-01-04T15:27:01.473Z,13.50
2019-01-04T15:29:43.810Z,13.38
2019-01-04T15:32:25.678Z,12.78
2019-01-04T15:35:08.302Z,14.68
2019-01-04T15:37:50.778Z,11.33
2019-01-04T15:40:33.555Z,13.58
2019-01-04T15:43:15.394Z,16.07
2019-01-04T15:45:57.633Z,15.08
2019-01-04T15:48:39.740Z,11.00
2019-01-04T15:51:22.132Z,12.07
2019-01-04T15:54:03.914Z,11.43
2019-01-04T15:56:46.533Z,10.38
2019-01-04T15:59:29.085Z,10.38
2019-01-04T16:02:11.648Z,11.05
2019-01-04T16:04:53.473Z,10.35
2019-01-04T16:07:35.803Z,10.45
2019-01-04T16:10:18.019Z,12.30
2019-01-04T16:13:00.260Z,10.78
2019-01-04T16:15:42.367Z,12.18
2019-01-04T16:18:24.277Z,9.55
2019-01-04T16:21:06.300Z,10.48
2019-01-04T16:23:48.661Z,11.53
2019-01-04T16:26:31.368Z,11.63
2019-01-04T16:29:13.761Z,12.53
2019-01-04T16:31:55.648Z,11.90
2019-01-04T16:34:37.864Z,11.73
2019-01-04T16:37:19.898Z,10.28
2019-01-04T16:40:02.178Z,11.18
2019-01-04T16:42:44.482Z,8.38
2019-01-04T16:45:26.739Z,9.20
2019-01-04T16:48:09.257Z,10.55
2019-01-04T16:50:51.681Z,10.15
2019-01-04T16:53:33.615Z,9.10
2019-01-04T16:56:17.059Z,12.18
2019-01-04T16:58:59.187Z,10.32
2019-01-04T17:01:41.948Z,11.50
2019-01-04T17:04:24.153Z,9.68
2019-01-04T17:07:06.240Z,11.25
2019-01-04T17:09:49.261Z,13.18
2019-01-04T17:12:31.709Z,10.15
2019-01-04T17:15:14.527Z,15.75
2019-01-04T17:17:56.401Z,12.50
2019-01-04T17:20:38.707Z,13.38
2019-01-04T17:23:21.439Z,17.60
2019-01-04T17:26:04.046Z,15.25
2019-01-04T17:28:46.449Z,12.80
2019-01-04T17:31:29.049Z,12.40
2019-01-04T17:34:11.021Z,17.25
2019-01-04T17:36:53.757Z,14.55
2019-01-04T17:39:36.569Z,13.83
2019-01-04T17:42:19.052Z,10.90
2019-01-04T17:45:01.294Z,8.85
2019-01-04T17:47:43.391Z,8.85
2019-01-04T17:50:25.957Z,9.05
2019-01-04T17:53:08.334Z,10.32
2019-01-04T17:55:50.741Z,9.60
2019-01-04T17:58:33.128Z,11.80
2019-01-04T18:01:15.225Z,15.25
2019-01-04T18:03:57.719Z,13.08
2019-01-04T18:06:39.757Z,13.22
2019-01-04T18:09:21.951Z,11.10
2019-01-04T18:12:04.403Z,9.10
2019-01-04T18:14:47.214Z,10.40
2019-01-04T18:17:29.546Z,11.25
2019-01-04T18:20:13.984Z,10.78
2019-01-04T18:22:55.411Z,13.15
2019-01-04T18:25:37.649Z,10.65
2019-01-04T18:28:19.779Z,14.30
2019-01-04T18:31:02.257Z,11.97
2019-01-04T18:33:44.289Z,13.38
2019-01-04T18:36:26.407Z,10.50
2019-01-04T18:39:08.553Z,11.78
2019-01-04T18:41:50.347Z,11.05
2019-01-04T18:44:32.893Z,9.18
2019-01-04T18:47:15.557Z,10.35
2019-01-04T18:49:57.806Z,9.70
2019-01-04T18:52:40.368Z,10.95
2019-01-04T18:55:22.493Z,8.55
2019-01-04T18:58:04.913Z,9.35
2019-01-04T19:00:46.799Z,11.20
2019-01-04T19:03:29.316Z,10.80
2019-01-04T19:06:11.508Z,12.10
2019-01-04T19:08:53.578Z,9.88
2019-01-04T19:11:35.804Z,9.93
2019-01-04T19:14:17.569Z,11.33
2019-01-04T19:16:59.745Z,11.30
2019-01-04T19:19:41.531Z,13.20
2019-01-04T19:22:23.532Z,15.13
2019-01-04T19:25:05.296Z,12.35
2019-01-04T19:27:47.408Z,13.68
2019-01-04T19:30:29.906Z,13.65
2019-01-04T19:33:12.296Z,12.60
2019-01-04T19:35:54.567Z,13.10
2019-01-04T19:38:37.105Z,12.63
2019-01-04T19:41:19.143Z,13.90
2019-01-04T19:44:01.322Z,13.62
2019-01-04T19:46:44.020Z,13.35
2019-01-04T19:49:26.416Z,12.35
2019-01-04T19:52:08.912Z,13.08
2019-01-04T19:54:50.833Z,12.55
2019-01-04T19:57:33.738Z,11.10
2019-01-04T20:00:16.257Z,10.82
2019-01-04T20:02:58.107Z,11.60
2019-01-04T20:09:15.523Z,12.63
2019-01-04T20:12:17.463Z,13.50
2019-01-04T20:18:21.412Z,13.30
2019-01-04T20:21:47.703Z,13.05
2019-01-04T20:25:09.062Z,12.60
2019-01-04T20:28:09.922Z,10.68
2019-01-04T20:31:12.374Z,12.15
2019-01-04T20:34:15.022Z,10.60
2019-01-04T20:37:36.786Z,9.00
2019-01-04T20:43:42.148Z,9.13
2019-01-04T20:49:29.042Z,9.93
2019-01-04T20:52:31.041Z,8.00
2019-01-04T20:55:32.333Z,9.73
2019-01-04T20:58:58.233Z,9.63
2019-01-04T21:05:18.109Z,10.05
2019-01-04T21:08:21.851Z,12.78
2019-01-04T21:11:20.419Z,11.10
2019-01-04T21:14:42.527Z,9.75
2019-01-04T21:20:52.340Z,10.08
2019-01-04T21:23:53.299Z,10.65
2019-01-04T21:26:54.250Z,11.15
2019-01-04T21:29:55.344Z,9.65
2019-01-04T21:32:59.577Z,9.18
2019-01-04T21:36:20.467Z,12.63
2019-01-04T21:39:22.807Z,9.83
2019-01-04T21:42:23.748Z,9.90
2019-01-04T21:45:32.276Z,10.30
2019-01-04T21:49:00.211Z,9.73
2019-01-04T21:52:08.689Z,13.90
2019-01-04T21:55:17.193Z,11.05
2019-01-04T21:58:22.015Z,10.50
2019-01-04T22:01:26.096Z,11.08
2019-01-04T22:04:46.349Z,12.03
2019-01-04T22:07:47.070Z,10.60
2019-01-04T22:11:07.765Z,14.38
2019-01-04T22:14:31.437Z,13.72
2019-01-04T22:17:52.021Z,12.10
2019-01-04T22:20:58.761Z,13.60
2019-01-04T22:24:25.533Z,15.70
2019-01-04T22:27:46.097Z,12.43
2019-01-04T22:30:46.847Z,13.58
2019-01-04T22:33:50.656Z,12.33
2019-01-04T22:37:14.176Z,12.50
2019-01-04T22:40:37.121Z,16.00
2019-01-04T22:43:57.713Z,13.65
2019-01-04T22:47:17.774Z,14.47
2019-01-04T22:50:40.857Z,16.10
2019-01-04T22:53:41.877Z,15.15
2019-01-04T22:56:43.075Z,14.98
2019-01-04T22:59:43.728Z,14.45
2019-01-04T23:02:44.937Z,15.85
2019-01-04T23:05:46.187Z,15.55
2019-01-04T23:09:06.445Z,16.25
2019-01-04T23:12:07.706Z,16.65
2019-01-04T23:15:28.327Z,17.32
2019-01-04T23:18:52.400Z,15.80
2019-01-04T23:22:13.516Z,18.20
2019-01-04T23:25:17.593Z,17.70
2019-01-04T23:31:42.781Z,18.65
2019-01-04T23:34:44.268Z,19.20
2019-01-04T23:37:45.447Z,16.45
2019-01-04T23:40:52.530Z,16.50
2019-01-04T23:44:08.585Z,16.65
2019-01-04T23:47:32.477Z,15.93
2019-01-04T23:50:53.697Z,16.07
2019-01-04T23:56:59.115Z,13.72
